Time;durP1;ratioP1;P1;durP2;ratioP2;P2;SDS_P1;SDS_P2;PMS_P1;PMS_P2;Temp;Humidity;BMP_temperature;BMP_pressure;BME280_temperature;BME280_humidity;BME280_pressure;Samples;Min_cycle;Max_cycle;Signal;HPM_P1;HPM_P2
2020/12/04 01:22:04;;;;;;;11.00;9.00;;;20.10;38.20;;;;;;4399335;28;20468;-71
2020/12/04 01:24:30;;;;;;;8.50;7.60;;;20.10;38.20;;;;;;5113844;28;20421;-71
2020/12/04 01:26:56;;;;;;;10.50;9.10;;;20.10;38.20;;;;;;5113067;28;20461;-71
2020/12/04 01:29:21;;;;;;;9.70;8.80;;;20.00;38.20;;;;;;5111622;28;20178;-71
2020/12/04 01:31:47;;;;;;;9.83;8.83;;;20.00;38.10;;;;;;5110632;28;20192;-73
2020/12/04 01:34:14;;;;;;;9.47;8.57;;;20.00;38.20;;;;;;5112849;28;20174;-71
2020/12/04 01:43:24;;;;;;;9.00;8.10;;;19.90;38.10;;;;;;5109513;28;20456;-71
2020/12/04 01:45:50;;;;;;;9.20;8.23;;;19.90;38.20;;;;;;5112285;28;20435;-71
2020/12/04 01:48:16;;;;;;;9.53;8.53;;;19.90;38.20;;;;;;5112162;28;20229;-72
2020/12/04 01:50:41;;;;;;;8.97;8.17;;;19.90;38.20;;;;;;5111087;28;20410;-72
2020/12/04 01:53:07;;;;;;;9.77;8.10;;;19.80;38.20;;;;;;5110721;28;20212;-73
2020/12/04 01:55:33;;;;;;;9.83;8.80;;;19.80;38.20;;;;;;5108946;28;20181;-73
2020/12/04 01:58:02;;;;;;;9.50;8.27;;;19.80;38.20;;;;;;5110289;28;20173;-73
2020/12/04 02:00:28;;;;;;;9.93;8.67;;;19.80;38.20;;;;;;5109897;28;20176;-72
2020/12/04 02:02:54;;;;;;;9.53;8.63;;;19.80;38.20;;;;;;5110935;28;20426;-72
2020/12/04 02:05:20;;;;;;;9.57;8.57;;;19.70;38.20;;;;;;5110885;28;20206;-72
2020/12/04 02:07:54;;;;;;;9.60;8.53;;;19.70;38.20;;;;;;5103556;28;20267;-73
2020/12/04 02:10:29;;;;;;;12.00;10.70;;;19.70;38.20;;;;;;5091948;28;20426;-72
2020/12/04 02:12:55;;;;;;;11.33;10.23;;;19.70;38.20;;;;;;5091841;28;20402;-73
2020/12/04 02:15:22;;;;;;;11.40;9.50;;;19.70;38.20;;;;;;5091953;28;20896;-72
2020/12/04 02:17:56;;;;;;;12.93;11.53;;;19.60;38.10;;;;;;5091655;28;20437;-71
2020/12/04 02:20:22;;;;;;;11.10;10.00;;;19.60;38.20;;;;;;5091844;28;20411;-71
2020/12/04 02:22:48;;;;;;;12.30;11.03;;;19.60;38.20;;;;;;5089974;28;20454;-72
2020/12/04 02:25:14;;;;;;;12.10;10.80;;;19.50;38.10;;;;;;5091446;28;20179;-73
2020/12/04 02:27:50;;;;;;;11.70;10.50;;;19.50;38.20;;;;;;5091659;28;20243;-72
2020/12/04 02:30:35;;;;;;;11.40;9.90;;;19.50;38.30;;;;;;5091611;28;20181;-72
2020/12/04 02:33:02;;;;;;;11.60;9.93;;;19.50;38.20;;;;;;5091681;28;20779;-70
2020/12/04 02:35:29;;;;;;;10.63;9.60;;;19.60;38.30;;;;;;5091523;28;20490;-70
2020/12/04 02:37:55;;;;;;;10.80;9.77;;;19.60;38.20;;;;;;5091490;28;20428;-71
2020/12/04 02:40:21;;;;;;;10.00;9.00;;;19.70;38.30;;;;;;5090663;28;20405;-71
2020/12/04 02:42:47;;;;;;;11.57;9.63;;;19.80;38.20;;;;;;5091111;28;20205;-71
2020/12/04 02:45:13;;;;;;;10.40;9.30;;;19.80;38.10;;;;;;5090506;28;20440;-71
2020/12/04 02:47:40;;;;;;;10.17;9.17;;;19.90;38.10;;;;;;5091230;28;20700;-72
2020/12/04 02:50:06;;;;;;;9.97;8.97;;;19.90;38.80;;;;;;5091126;28;20417;-71
2020/12/04 02:52:32;;;;;;;10.27;9.27;;;20.00;38.10;;;;;;5091172;28;20422;-71
2020/12/04 02:54:57;;;;;;;10.80;9.50;;;20.00;38.00;;;;;;5091046;28;20194;-71
2020/12/04 02:57:23;;;;;;;11.80;10.50;;;20.00;37.90;;;;;;5090346;28;20274;-70
2020/12/04 02:59:49;;;;;;;9.77;8.80;;;20.00;37.90;;;;;;5091342;28;20186;-71
2020/12/04 03:02:14;;;;;;;9.77;8.77;;;20.00;37.90;;;;;;5091031;28;20251;-71
2020/12/04 03:04:40;;;;;;;10.20;9.07;;;20.00;37.90;;;;;;5090771;28;20181;-69
2020/12/04 03:07:06;;;;;;;10.67;9.57;;;20.00;37.90;;;;;;5090911;28;20255;-71
2020/12/04 03:09:32;;;;;;;9.73;8.73;;;20.00;37.90;;;;;;5089618;28;20222;-71
2020/12/04 03:11:58;;;;;;;10.47;9.37;;;20.00;38.00;;;;;;5090756;28;20642;-70
2020/12/04 03:14:25;;;;;;;9.60;8.70;;;19.90;37.90;;;;;;5090870;28;20541;-70
2020/12/04 03:16:51;;;;;;;9.40;8.50;;;19.90;37.90;;;;;;5090191;28;20428;-69
2020/12/04 03:19:17;;;;;;;9.60;8.70;;;19.90;37.90;;;;;;5089411;28;20419;-70
2020/12/04 03:21:43;;;;;;;9.30;8.40;;;19.90;38.00;;;;;;5089057;28;20479;-70
2020/12/04 03:24:09;;;;;;;9.90;8.07;;;19.90;38.00;;;;;;5090672;28;20907;-70
2020/12/04 03:26:35;;;;;;;9.70;8.70;;;19.90;38.00;;;;;;5090283;28;20201;-70
2020/12/04 03:29:00;;;;;;;8.87;7.97;;;19.90;38.10;;;;;;5089115;28;20184;-73
2020/12/04 03:31:26;;;;;;;10.10;9.10;;;19.90;38.20;;;;;;5090590;28;21209;-70
2020/12/04 03:33:51;;;;;;;9.60;8.60;;;19.90;38.20;;;;;;5090389;28;20184;-71
2020/12/04 03:36:17;;;;;;;8.70;7.80;;;19.80;38.10;;;;;;5089364;28;20183;-69
2020/12/04 03:38:43;;;;;;;9.00;8.07;;;19.80;38.10;;;;;;5088916;28;20185;-71
2020/12/04 03:41:09;;;;;;;9.97;8.00;;;19.80;38.20;;;;;;5089228;28;20539;-70
2020/12/04 03:43:40;;;;;;;8.87;7.97;;;19.80;38.20;;;;;;5090557;28;20652;-70
2020/12/04 03:46:09;;;;;;;8.83;8.00;;;19.80;38.20;;;;;;5090396;28;20171;-70
2020/12/04 03:48:36;;;;;;;9.33;8.43;;;19.70;38.20;;;;;;5090452;28;20470;-70
2020/12/04 03:51:02;;;;;;;8.40;7.60;;;19.70;38.30;;;;;;5088840;28;20830;-68
2020/12/04 03:53:27;;;;;;;8.97;8.07;;;19.70;38.30;;;;;;5090260;28;20438;-68
2020/12/04 03:55:53;;;;;;;10.47;9.37;;;19.70;38.30;;;;;;5090111;28;20181;-69
2020/12/04 03:58:19;;;;;;;9.37;8.10;;;19.60;38.30;;;;;;5090271;28;20182;-70
2020/12/04 04:12:26;;;;;;;9.20;8.40;;;19.60;37.70;;;;;;5128203;27;20527;-78
2020/12/04 04:14:51;;;;;;;8.80;7.90;;;19.50;38.50;;;;;;5128002;27;20461;-76
2020/12/04 04:17:17;;;;;;;8.37;7.53;;;19.50;38.40;;;;;;5128377;27;20481;-78
2020/12/04 04:19:43;;;;;;;8.50;7.70;;;19.50;38.50;;;;;;5127824;27;20244;-78
2020/12/04 04:22:08;;;;;;;9.27;8.37;;;19.40;38.40;;;;;;5127019;28;20192;-77
2020/12/04 04:24:34;;;;;;;11.00;7.90;;;19.40;38.40;;;;;;5128222;27;20271;-77
2020/12/04 04:27:00;;;;;;;10.70;8.27;;;19.40;38.50;;;;;;5128050;27;20172;-78
2020/12/04 04:29:26;;;;;;;9.33;8.43;;;19.40;38.50;;;;;;5126559;27;20412;-77
2020/12/04 04:31:51;;;;;;;9.67;8.57;;;19.30;38.50;;;;;;5126510;27;20172;-77
2020/12/04 04:34:17;;;;;;;8.60;7.80;;;19.30;38.50;;;;;;5125689;27;20183;-77
2020/12/04 04:36:44;;;;;;;8.83;7.70;;;19.40;38.60;;;;;;5126484;27;20480;-77
2020/12/04 04:39:10;;;;;;;8.20;7.40;;;19.40;38.60;;;;;;5126505;27;20406;-77
2020/12/04 04:41:35;;;;;;;8.70;7.80;;;19.50;38.60;;;;;;5127894;27;20517;-76
2020/12/04 04:44:01;;;;;;;8.83;7.93;;;19.50;38.60;;;;;;5127409;27;20420;-76
2020/12/04 04:46:33;;;;;;;8.50;7.70;;;19.60;38.60;;;;;;5126414;27;20191;-76
2020/12/04 04:49:05;;;;;;;7.97;7.20;;;19.70;38.60;;;;;;5126104;27;20183;-76
2020/12/04 04:51:31;;;;;;;8.50;7.70;;;19.70;38.60;;;;;;5126624;27;20516;-77
2020/12/04 04:53:58;;;;;;;7.67;6.90;;;19.70;38.50;;;;;;5128002;27;20416;-76
2020/12/04 04:56:24;;;;;;;11.47;9.10;;;19.80;38.50;;;;;;5126259;27;20425;-76
2020/12/04 04:58:50;;;;;;;9.33;8.33;;;19.80;38.40;;;;;;5127514;27;20493;-76
2020/12/04 05:01:17;;;;;;;9.70;8.17;;;19.80;38.30;;;;;;5126910;27;20553;-72
2020/12/04 05:03:58;;;;;;;8.43;7.63;;;19.80;38.20;;;;;;5127131;27;20402;-72
2020/12/04 05:06:34;;;;;;;8.37;7.30;;;19.80;38.20;;;;;;5127476;27;20440;-75
2020/12/04 05:09:01;;;;;;;9.40;7.83;;;19.80;38.30;;;;;;5126115;28;20509;-74
2020/12/04 05:11:26;;;;;;;9.93;8.40;;;19.90;38.30;;;;;;5124669;27;20488;-74
2020/12/04 05:14:14;;;;;;;8.90;8.00;;;19.90;38.30;;;;;;5112012;28;20454;-75
2020/12/04 05:16:41;;;;;;;8.67;7.80;;;19.90;38.30;;;;;;5112047;28;20173;-74
2020/12/04 05:19:07;;;;;;;9.00;8.10;;;20.00;38.40;;;;;;5113167;28;20410;-75
2020/12/04 05:21:33;;;;;;;7.97;7.17;;;20.00;38.30;;;;;;5111866;28;20468;-74
2020/12/04 05:24:00;;;;;;;8.73;7.93;;;20.10;38.30;;;;;;5112115;28;20184;-72
2020/12/04 05:26:30;;;;;;;9.63;8.30;;;20.10;38.30;;;;;;5111828;28;20418;-73
2020/12/04 05:28:56;;;;;;;9.10;8.20;;;20.10;38.10;;;;;;5112015;28;20419;-73
2020/12/04 05:31:28;;;;;;;8.57;7.67;;;20.20;38.20;;;;;;5111845;28;20418;-73
2020/12/04 05:33:54;;;;;;;8.23;7.43;;;20.20;38.10;;;;;;5112905;28;20159;-74
2020/12/04 05:36:28;;;;;;;8.43;7.50;;;20.20;38.10;;;;;;5111689;28;20948;-74
2020/12/04 05:38:55;;;;;;;9.43;8.20;;;20.20;38.10;;;;;;5112873;28;20174;-74
2020/12/04 05:41:21;;;;;;;8.07;7.27;;;20.30;38.00;;;;;;5112879;27;20469;-74
2020/12/04 05:43:47;;;;;;;9.30;7.87;;;20.30;38.00;;;;;;5112649;28;20418;-73
2020/12/04 05:46:24;;;;;;;10.20;8.53;;;20.30;37.90;;;;;;5111462;28;20411;-74
2020/12/04 05:48:57;;;;;;;10.80;8.60;;;20.30;37.90;;;;;;5112610;28;20170;-73
2020/12/04 05:51:26;;;;;;;10.40;9.33;;;20.30;37.80;;;;;;5112600;27;20429;-74
2020/12/04 05:53:52;;;;;;;8.53;7.63;;;20.30;37.70;;;;;;5111471;28;20501;-73
2020/12/04 05:56:19;;;;;;;9.40;8.40;;;20.20;37.70;;;;;;5112977;28;20746;-73
2020/12/04 05:58:47;;;;;;;11.77;9.10;;;20.20;37.70;;;;;;5112625;28;20439;-73
2020/12/04 06:01:20;;;;;;;9.20;8.20;;;20.20;37.70;;;;;;5112516;28;20526;-73
2020/12/04 06:03:54;;;;;;;9.67;8.67;;;20.20;37.80;;;;;;5112380;28;20390;-72
2020/12/04 06:06:31;;;;;;;9.30;7.87;;;20.10;37.70;;;;;;5111430;28;20423;-73
2020/12/04 06:09:05;;;;;;;9.80;8.33;;;20.10;37.70;;;;;;5111139;28;20450;-78
2020/12/04 06:11:51;;;;;;;9.20;8.30;;;20.00;37.70;;;;;;5110753;28;20959;-79
2020/12/04 06:14:19;;;;;;;10.10;8.50;;;20.00;37.70;;;;;;5110757;28;20427;-78
2020/12/04 06:17:00;;;;;;;9.03;8.00;;;20.00;37.70;;;;;;5112008;28;20401;-76
2020/12/04 06:19:37;;;;;;;10.00;8.90;;;20.00;37.80;;;;;;5110793;28;20447;-76
2020/12/04 06:22:04;;;;;;;10.23;9.13;;;19.90;37.70;;;;;;5110702;28;20886;-76
2020/12/04 06:24:32;;;;;;;10.40;9.30;;;19.90;37.70;;;;;;5111065;28;20418;-76
2020/12/04 06:26:58;;;;;;;9.80;8.83;;;19.90;37.80;;;;;;5113093;28;20766;-76
2020/12/04 06:29:23;;;;;;;9.30;8.30;;;19.90;37.90;;;;;;5112484;28;20972;-77
2020/12/04 06:31:49;;;;;;;10.63;9.37;;;19.90;37.90;;;;;;5111755;28;20643;-75
2020/12/04 06:34:20;;;;;;;9.07;8.17;;;19.90;37.90;;;;;;5111831;28;20250;-74
2020/12/04 06:36:48;;;;;;;8.70;7.80;;;19.80;37.80;;;;;;5112006;28;20165;-74
2020/12/04 06:39:32;;;;;;;9.17;8.27;;;19.80;37.80;;;;;;5111731;28;20459;-73
2020/12/04 06:41:59;;;;;;;8.17;7.37;;;19.80;37.90;;;;;;5110349;28;20460;-72
2020/12/04 06:44:50;;;;;;;10.43;7.90;;;19.70;37.30;;;;;;5147282;27;20537;-74
2020/12/04 06:47:19;;;;;;;8.10;6.57;;;19.80;39.30;;;;;;5128068;27;20416;-74
2020/12/04 06:49:45;;;;;;;8.03;7.00;;;19.90;40.60;;;;;;5125938;28;20471;-74
2020/12/04 06:52:18;;;;;;;7.57;6.53;;;20.00;41.20;;;;;;5128190;27;20433;-76
2020/12/04 06:54:48;;;;;;;7.23;6.13;;;20.00;40.90;;;;;;5127860;28;20161;-73
2020/12/04 06:57:21;;;;;;;7.73;7.03;;;20.10;40.70;;;;;;5126314;28;20475;-73
2020/12/04 06:59:47;;;;;;;9.17;7.70;;;20.10;40.30;;;;;;5126465;28;20834;-73
2020/12/04 07:02:14;;;;;;;10.50;7.57;;;20.20;40.00;;;;;;5113953;28;20531;-70
2020/12/04 07:04:47;;;;;;;21.43;7.63;;;20.20;39.80;;;;;;5100331;28;20702;-69
2020/12/04 07:07:16;;;;;;;10.02;6.40;;;20.20;40.30;;;;;;5104783;28;20903;-72
2020/12/04 07:09:51;;;;;;;9.07;7.40;;;20.40;41.20;;;;;;5104516;28;20283;-67
2020/12/04 07:12:17;;;;;;;7.43;6.33;;;20.50;41.70;;;;;;5104855;28;20392;-69
2020/12/04 07:14:50;;;;;;;12.13;7.07;;;20.50;41.90;;;;;;5103401;28;20429;-64
2020/12/04 07:17:24;;;;;;;12.50;7.60;;;20.60;42.60;;;;;;5104932;28;20398;-66
2020/12/04 07:19:51;;;;;;;8.33;7.43;;;20.70;42.00;;;;;;5103522;28;20441;-64
2020/12/04 07:22:24;;;;;;;8.50;7.00;;;20.80;41.60;;;;;;5101596;28;20918;-69
2020/12/04 07:24:51;;;;;;;7.10;6.40;;;20.90;41.70;;;;;;5103131;28;20423;-67
2020/12/04 07:27:18;;;;;;;8.30;6.10;;;21.00;41.50;;;;;;5102732;28;20962;-68
2020/12/04 07:29:45;;;;;;;8.97;6.60;;;21.10;41.20;;;;;;5103109;28;20438;-68
2020/12/04 07:32:11;;;;;;;7.57;6.77;;;21.30;41.30;;;;;;5103288;28;20447;-68
2020/12/04 07:34:38;;;;;;;6.90;6.20;;;21.40;41.00;;;;;;5103083;28;20875;-70
2020/12/04 07:37:05;;;;;;;6.87;6.23;;;21.60;40.80;;;;;;5101294;28;20419;-70
2020/12/04 07:39:34;;;;;;;7.53;6.53;;;21.70;41.30;;;;;;5102166;28;20419;-69
2020/12/04 07:42:01;;;;;;;11.33;7.13;;;21.90;41.00;;;;;;5102885;28;20892;-70
2020/12/04 07:44:47;;;;;;;7.80;6.77;;;22.10;40.80;;;;;;5102051;28;20467;-68
2020/12/04 07:47:15;;;;;;;9.67;7.50;;;22.10;40.70;;;;;;5100978;28;20416;-70
2020/12/04 07:49:45;;;;;;;9.03;8.10;;;22.10;41.80;;;;;;5103150;28;20420;-73
2020/12/04 07:52:23;;;;;;;9.50;7.43;;;22.20;41.70;;;;;;5100103;28;20416;-73
2020/12/04 07:54:55;;;;;;;7.33;6.63;;;22.20;41.50;;;;;;5094679;28;20470;-74
2020/12/04 07:57:24;;;;;;;10.87;8.63;;;22.30;42.30;;;;;;5090204;28;20752;-75
2020/12/04 07:59:54;;;;;;;8.53;7.40;;;22.40;41.60;;;;;;5088262;28;20417;-74
2020/12/04 08:02:27;;;;;;;7.53;6.83;;;22.50;42.10;;;;;;5089299;28;20437;-74
2020/12/04 08:04:55;;;;;;;7.80;7.00;;;22.50;41.70;;;;;;5087729;28;21028;-73
2020/12/04 08:07:26;;;;;;;6.47;5.87;;;22.60;42.70;;;;;;5088881;28;20489;-73
2020/12/04 08:09:52;;;;;;;14.53;7.00;;;22.90;43.00;;;;;;5088751;28;20544;-70
2020/12/04 08:12:25;;;;;;;6.57;5.97;;;23.10;43.40;;;;;;5087739;28;20494;-70
2020/12/04 08:14:56;;;;;;;6.80;6.10;;;23.20;43.20;;;;;;5088287;28;20184;-71
2020/12/04 08:17:24;;;;;;;7.70;6.67;;;23.30;42.50;;;;;;5084590;28;20406;-72
2020/12/04 08:19:50;;;;;;;7.90;6.07;;;23.50;42.70;;;;;;5088466;28;21155;-73
2020/12/04 08:22:25;;;;;;;8.40;6.37;;;23.80;42.40;;;;;;5086778;28;20414;-71
2020/12/04 08:25:03;;;;;;;8.30;7.23;;;23.90;42.30;;;;;;5088665;28;20409;-69
2020/12/04 08:30:50;;;;;;;7.07;6.40;;;24.00;42.10;;;;;;5074653;28;20967;-70
2020/12/04 08:33:16;;;;;;;7.63;6.20;;;24.40;41.60;;;;;;5077540;28;20411;-72
2020/12/04 08:35:44;;;;;;;6.50;5.90;;;24.40;42.10;;;;;;5056409;28;20195;-70
2020/12/04 08:38:15;;;;;;;8.03;6.50;;;24.40;41.80;;;;;;5056938;28;20550;-69
2020/12/04 08:40:49;;;;;;;6.93;6.03;;;24.50;40.70;;;;;;5078503;28;20415;-68
2020/12/04 08:43:21;;;;;;;7.23;6.50;;;24.50;41.50;;;;;;5080227;28;20981;-68
2020/12/04 08:45:50;;;;;;;9.27;7.00;;;24.50;41.40;;;;;;5084368;28;20406;-68
2020/12/04 08:48:28;;;;;;;7.40;6.57;;;24.50;41.50;;;;;;5085067;28;20504;-70
2020/12/04 08:51:02;;;;;;;7.30;5.87;;;24.50;41.50;;;;;;5084243;28;20400;-69
2020/12/04 08:53:28;;;;;;;8.97;5.53;;;24.40;42.40;;;;;;5084172;28;20429;-70
2020/12/04 08:55:59;;;;;;;8.10;6.73;;;24.40;42.00;;;;;;5082782;28;20493;-71
2020/12/04 08:58:26;;;;;;;9.13;6.50;;;24.40;43.70;;;;;;5083263;28;20568;-69
2020/12/04 09:00:53;;;;;;;6.67;5.83;;;24.40;41.30;;;;;;5083662;28;21032;-71
2020/12/04 09:03:20;;;;;;;6.90;6.20;;;24.40;41.10;;;;;;5083848;28;20581;-74
2020/12/04 09:05:47;;;;;;;7.73;6.27;;;24.40;41.50;;;;;;5083514;28;20440;-74
2020/12/04 09:08:13;;;;;;;6.47;5.80;;;24.30;41.50;;;;;;5084139;28;20406;-73
2020/12/04 09:10:40;;;;;;;7.20;6.43;;;24.20;41.50;;;;;;5083152;28;20766;-71
2020/12/04 09:13:07;;;;;;;7.40;6.33;;;24.20;41.50;;;;;;5082261;28;20445;-73
2020/12/04 09:15:33;;;;;;;8.80;6.23;;;24.20;41.40;;;;;;5083233;28;20470;-72
2020/12/04 09:17:59;;;;;;;7.90;6.70;;;24.10;41.00;;;;;;5083723;28;20444;-69
2020/12/04 09:20:25;;;;;;;7.80;6.00;;;24.10;41.50;;;;;;5085014;28;20437;-68
2020/12/04 09:22:53;;;;;;;7.30;5.83;;;24.00;41.70;;;;;;5083384;28;20449;-71
2020/12/04 09:25:19;;;;;;;7.50;6.33;;;24.00;41.80;;;;;;5083696;28;20424;-68
2020/12/04 09:27:45;;;;;;;7.13;6.43;;;24.00;40.60;;;;;;5083000;28;20421;-69
2020/12/04 09:30:15;;;;;;;8.90;6.33;;;24.00;39.80;;;;;;5100507;28;20429;-69
2020/12/04 09:32:49;;;;;;;7.07;6.27;;;24.00;39.70;;;;;;5083630;28;20931;-70
2020/12/04 09:35:15;;;;;;;9.90;7.53;;;24.10;39.80;;;;;;5084259;28;20413;-69
2020/12/04 09:37:43;;;;;;;10.03;8.90;;;24.10;39.70;;;;;;5083971;28;20423;-70
2020/12/04 09:40:12;;;;;;;10.20;8.40;;;24.10;39.20;;;;;;5083850;28;20407;-73
2020/12/04 09:42:38;;;;;;;9.83;8.93;;;24.00;39.20;;;;;;5081600;28;20426;-73
2020/12/04 09:45:07;;;;;;;10.30;9.20;;;24.00;39.00;;;;;;5084000;28;20416;-72
2020/12/04 09:47:33;;;;;;;9.57;8.60;;;24.00;39.40;;;;;;5081758;28;20414;-73
2020/12/04 09:49:59;;;;;;;11.03;9.97;;;24.00;39.30;;;;;;5084079;28;20937;-71
2020/12/04 09:52:25;;;;;;;10.90;8.87;;;23.90;39.50;;;;;;5083633;28;20418;-71
2020/12/04 09:54:51;;;;;;;8.90;8.00;;;23.90;39.50;;;;;;5098644;28;20429;-71
2020/12/04 09:57:18;;;;;;;9.50;8.60;;;23.90;40.50;;;;;;5083000;28;20428;-71
2020/12/04 09:59:44;;;;;;;9.60;8.10;;;23.90;39.60;;;;;;5098910;28;20961;-69
2020/12/04 10:02:11;;;;;;;9.80;8.00;;;23.90;39.80;;;;;;5083519;28;20457;-69
2020/12/04 10:04:39;;;;;;;8.90;8.00;;;23.90;41.40;;;;;;5082300;28;20516;-70
2020/12/04 10:07:05;;;;;;;9.47;7.53;;;23.70;41.90;;;;;;5085125;28;20460;-72
2020/12/04 10:09:31;;;;;;;12.97;7.77;;;23.60;42.50;;;;;;5085339;28;20491;-75
2020/12/04 10:11:56;;;;;;;11.23;6.80;;;23.60;43.40;;;;;;5085143;28;20922;-73
2020/12/04 10:14:24;;;;;;;9.27;6.73;;;23.60;43.20;;;;;;5084933;28;20245;-73
